Time;durP1;ratioP1;P1;durP2;ratioP2;P2;SDS_P1;SDS_P2;PMS_P1;PMS_P2;Temp;Humidity;BMP_temperature;BMP_pressure;BME280_temperature;BME280_humidity;BME280_pressure;Samples;Min_cycle;Max_cycle;Signal;HPM_P1;HPM_P2
2024/03/13 00:01:26;;;;;;;16.50;7.03;;;9.20;99.90;;;;;;5063814;28;20702;-82
2024/03/13 00:03:55;;;;;;;18.67;7.40;;;9.20;99.90;;;;;;5070597;28;20458;-81
2024/03/13 00:06:22;;;;;;;14.90;6.60;;;9.30;99.90;;;;;;5056838;28;20580;-83
2024/03/13 00:08:48;;;;;;;14.60;7.00;;;9.20;99.90;;;;;;5065551;28;21028;-83
2024/03/13 00:11:15;;;;;;;15.17;6.60;;;9.20;99.90;;;;;;5068996;28;20519;-83
2024/03/13 00:13:43;;;;;;;20.37;7.90;;;9.30;99.90;;;;;;5066592;28;21003;-83
2024/03/13 00:16:12;;;;;;;16.23;7.50;;;9.20;99.90;;;;;;5062265;28;20472;-84
2024/03/13 00:18:39;;;;;;;16.30;8.10;;;9.30;99.90;;;;;;5060239;28;20502;-83
2024/03/13 00:21:08;;;;;;;14.63;6.70;;;9.30;99.90;;;;;;5064420;28;20450;-83
2024/03/13 00:23:34;;;;;;;14.43;6.83;;;9.30;99.90;;;;;;5063688;28;20750;-83
2024/03/13 00:26:05;;;;;;;14.93;7.90;;;9.30;99.90;;;;;;5055232;28;20506;-83
2024/03/13 00:28:32;;;;;;;14.60;7.13;;;9.40;99.90;;;;;;5059880;28;20527;-83
2024/03/13 00:31:00;;;;;;;15.47;7.60;;;9.40;99.90;;;;;;5062866;28;20464;-83
2024/03/13 00:33:26;;;;;;;16.70;7.40;;;9.40;99.90;;;;;;5068012;28;20460;-83
2024/03/13 00:35:54;;;;;;;16.20;7.67;;;9.30;99.90;;;;;;5055418;28;20510;-83
2024/03/13 00:38:25;;;;;;;16.43;7.23;;;9.40;99.90;;;;;;5064993;28;20516;-83
2024/03/13 00:40:52;;;;;;;15.70;7.10;;;9.30;99.90;;;;;;5065597;28;20459;-83
2024/03/13 00:43:20;;;;;;;16.23;8.00;;;9.40;99.90;;;;;;5071233;28;20462;-83
2024/03/13 00:45:48;;;;;;;14.90;7.13;;;9.30;99.90;;;;;;5066283;28;20467;-83
2024/03/13 00:48:17;;;;;;;16.70;7.37;;;9.40;99.90;;;;;;5066553;28;20461;-83
2024/03/13 00:50:44;;;;;;;14.60;7.33;;;9.40;99.90;;;;;;5060136;28;20453;-83
2024/03/13 00:53:12;;;;;;;15.37;7.80;;;9.40;99.90;;;;;;5061833;28;20455;-83
2024/03/13 00:55:40;;;;;;;20.13;8.70;;;9.40;99.90;;;;;;5064533;28;20480;-82
2024/03/13 00:58:08;;;;;;;16.73;7.17;;;9.40;99.90;;;;;;5067832;28;20476;-83
2024/03/13 01:00:37;;;;;;;14.20;7.50;;;9.40;99.90;;;;;;5062653;28;20461;-83
2024/03/13 01:03:04;;;;;;;17.43;7.70;;;9.40;99.90;;;;;;5063738;28;20503;-83
2024/03/13 01:05:31;;;;;;;14.37;7.40;;;9.40;99.90;;;;;;5066156;28;20472;-80
2024/03/13 01:07:58;;;;;;;15.77;8.30;;;9.40;99.90;;;;;;5066284;28;20551;-83
2024/03/13 01:10:26;;;;;;;14.70;7.50;;;9.40;99.90;;;;;;5066513;28;20495;-82
2024/03/13 01:12:55;;;;;;;17.47;7.23;;;9.30;99.90;;;;;;5065261;28;20947;-83
2024/03/13 01:15:22;;;;;;;15.93;7.53;;;9.40;99.90;;;;;;5065410;28;20492;-83
2024/03/13 01:17:49;;;;;;;14.80;6.50;;;9.40;99.90;;;;;;5059383;28;20541;-83
2024/03/13 01:20:17;;;;;;;11.47;6.00;;;9.40;99.90;;;;;;5063412;28;20454;-83
2024/03/13 01:22:45;;;;;;;15.70;6.90;;;9.40;99.90;;;;;;5063077;28;20992;-82
2024/03/13 01:25:12;;;;;;;14.07;7.80;;;9.40;99.90;;;;;;5059748;28;20490;-83
2024/03/13 01:27:40;;;;;;;17.63;7.63;;;9.50;99.90;;;;;;5060024;28;20452;-83
2024/03/13 01:30:09;;;;;;;15.77;7.97;;;9.50;99.90;;;;;;5065511;28;20503;-83
2024/03/13 01:32:37;;;;;;;14.23;7.17;;;9.50;99.90;;;;;;5078623;28;20447;-84
2024/03/13 01:35:04;;;;;;;15.20;7.33;;;9.50;99.90;;;;;;5071434;28;20480;-83
2024/03/13 01:40:19;;;;;;;14.93;8.03;;;9.40;99.90;;;;;;5082872;28;20479;-83
2024/03/13 01:54:53;;;;;;;14.67;6.47;;;9.50;99.90;;;;;;5060198;28;20430;-82
2024/03/13 01:57:29;;;;;;;12.73;5.53;;;9.50;99.90;;;;;;5060085;28;20963;-82
2024/03/13 02:02:37;;;;;;;13.60;6.77;;;9.50;99.90;;;;;;5058111;28;20478;-84
2024/03/13 02:05:06;;;;;;;15.73;7.50;;;9.50;99.90;;;;;;5079500;28;20475;-84
2024/03/13 02:07:33;;;;;;;14.80;7.20;;;9.50;99.90;;;;;;5081190;28;20501;-83
2024/03/13 02:10:01;;;;;;;14.47;7.03;;;9.40;99.90;;;;;;5080849;28;20491;-83
2024/03/13 02:12:29;;;;;;;13.23;6.70;;;9.30;99.90;;;;;;5080394;28;20486;-84
2024/03/13 02:14:56;;;;;;;12.50;6.40;;;9.30;99.90;;;;;;5078112;28;20482;-83
2024/03/13 02:17:23;;;;;;;13.53;6.67;;;9.30;99.90;;;;;;5077738;28;20545;-84
2024/03/13 02:19:54;;;;;;;13.53;6.77;;;9.30;99.90;;;;;;5061784;28;20455;-83
2024/03/13 02:22:22;;;;;;;14.53;5.80;;;9.30;99.90;;;;;;5077122;28;20499;-83
2024/03/13 02:24:49;;;;;;;15.53;7.53;;;9.30;99.90;;;;;;5076689;28;20490;-83
2024/03/13 02:27:16;;;;;;;14.70;7.17;;;9.20;99.90;;;;;;5050666;28;20452;-84
2024/03/13 02:29:46;;;;;;;15.63;7.27;;;9.20;99.90;;;;;;5050797;28;21029;-83
2024/03/13 02:32:13;;;;;;;10.70;5.40;;;9.20;99.90;;;;;;5035336;28;20473;-83
2024/03/13 02:34:43;;;;;;;12.60;6.83;;;9.20;99.90;;;;;;5059761;28;20882;-83
2024/03/13 02:37:10;;;;;;;11.53;5.80;;;9.20;99.90;;;;;;5054608;28;20478;-83
2024/03/13 02:39:37;;;;;;;16.43;7.80;;;9.20;99.90;;;;;;5037520;28;20538;-83
2024/03/13 02:42:04;;;;;;;11.17;6.00;;;9.00;99.90;;;;;;5058926;28;20884;-83
2024/03/13 02:44:31;;;;;;;13.07;6.20;;;9.00;99.90;;;;;;5058845;28;20964;-82
2024/03/13 02:46:58;;;;;;;13.40;6.47;;;9.20;99.90;;;;;;5048006;28;20555;-83
2024/03/13 02:49:25;;;;;;;11.60;5.53;;;9.10;99.90;;;;;;5033141;28;20521;-83
2024/03/13 02:51:52;;;;;;;11.40;5.30;;;9.10;99.90;;;;;;5044465;28;20454;-83
2024/03/13 02:54:19;;;;;;;13.70;6.00;;;9.10;99.90;;;;;;5063079;28;20548;-83
2024/03/13 02:56:46;;;;;;;11.33;6.03;;;9.10;99.90;;;;;;5062629;28;20564;-84
2024/03/13 02:59:13;;;;;;;12.03;6.00;;;9.10;99.90;;;;;;5063860;28;20830;-83
2024/03/13 03:01:40;;;;;;;10.47;5.63;;;9.20;99.90;;;;;;5055065;28;20548;-84
2024/03/13 03:04:08;;;;;;;12.17;6.17;;;9.00;99.90;;;;;;5047976;28;20519;-84
2024/03/13 03:06:35;;;;;;;10.80;5.20;;;9.10;99.90;;;;;;5063807;28;20486;-84
2024/03/13 03:09:03;;;;;;;9.23;4.43;;;9.10;99.90;;;;;;5075617;28;20538;-82
2024/03/13 03:11:30;;;;;;;11.93;5.83;;;9.20;99.90;;;;;;5078727;28;20468;-83
2024/03/13 03:13:57;;;;;;;12.70;5.50;;;9.20;99.90;;;;;;5072804;28;20851;-83
2024/03/13 03:16:24;;;;;;;10.57;5.63;;;9.20;99.90;;;;;;5027765;28;20512;-83
2024/03/13 03:18:51;;;;;;;10.00;4.23;;;9.20;99.90;;;;;;5027368;28;20511;-83
2024/03/13 03:21:18;;;;;;;11.10;5.17;;;9.20;99.90;;;;;;5025491;28;20548;-84
2024/03/13 03:23:45;;;;;;;12.40;5.33;;;9.30;99.90;;;;;;5063931;28;20466;-84
2024/03/13 03:26:18;;;;;;;12.43;4.90;;;9.20;99.90;;;;;;5059685;28;20474;-84
2024/03/13 03:28:45;;;;;;;11.50;4.90;;;9.30;99.90;;;;;;5027164;28;20903;-83
2024/03/13 03:31:12;;;;;;;10.50;3.73;;;9.20;99.90;;;;;;5025896;28;20498;-83
2024/03/13 03:33:39;;;;;;;9.90;4.73;;;9.20;99.90;;;;;;5042109;28;20482;-84
2024/03/13 03:36:06;;;;;;;7.87;3.90;;;9.30;99.90;;;;;;5063215;28;20525;-83
2024/03/13 03:38:33;;;;;;;8.80;3.80;;;9.30;99.90;;;;;;5063160;28;20457;-83
2024/03/13 03:41:00;;;;;;;9.67;4.10;;;9.40;99.90;;;;;;5036542;28;20451;-84
2024/03/13 03:43:27;;;;;;;9.23;3.90;;;9.40;99.90;;;;;;5056084;28;20464;-83
2024/03/13 03:45:54;;;;;;;9.23;3.77;;;9.40;99.90;;;;;;5041691;28;20501;-83
2024/03/13 03:48:21;;;;;;;8.47;4.03;;;9.40;99.90;;;;;;5060624;28;20541;-83
2024/03/13 03:50:48;;;;;;;9.90;4.53;;;9.40;99.90;;;;;;5069487;28;20494;-82
2024/03/13 03:53:15;;;;;;;8.57;3.93;;;9.50;99.90;;;;;;5076237;28;20455;-83
2024/03/13 03:55:43;;;;;;;10.50;4.00;;;9.50;99.90;;;;;;5052317;28;20473;-83
2024/03/13 03:58:10;;;;;;;8.60;4.00;;;9.50;99.90;;;;;;5057344;28;21009;-84
2024/03/13 04:00:37;;;;;;;9.57;4.33;;;9.50;99.90;;;;;;5065589;28;20471;-85
2024/03/13 04:03:04;;;;;;;9.43;4.47;;;9.50;99.90;;;;;;5053820;28;20507;-84
2024/03/13 04:05:31;;;;;;;9.33;4.20;;;9.50;99.90;;;;;;5064022;28;20492;-80
2024/03/13 04:07:58;;;;;;;9.70;4.30;;;9.60;99.90;;;;;;5068597;28;20450;-84
2024/03/13 04:10:25;;;;;;;7.63;3.77;;;9.60;99.90;;;;;;5067767;28;20495;-83
2024/03/13 04:12:53;;;;;;;10.03;4.00;;;9.70;99.90;;;;;;5062655;28;20522;-84
2024/03/13 04:15:23;;;;;;;7.63;3.10;;;9.60;99.90;;;;;;5062035;28;21192;-83
2024/03/13 04:17:51;;;;;;;7.70;3.63;;;9.70;99.90;;;;;;5061674;28;20466;-84
2024/03/13 04:20:18;;;;;;;8.40;2.70;;;9.70;99.90;;;;;;5055064;28;20876;-84
2024/03/13 04:22:46;;;;;;;6.87;3.20;;;9.70;99.90;;;;;;5056477;28;20462;-83
2024/03/13 04:25:13;;;;;;;7.77;3.53;;;9.70;99.90;;;;;;5038086;28;20494;-83
2024/03/13 04:27:40;;;;;;;7.97;3.30;;;9.80;99.90;;;;;;5045668;28;20435;-83
2024/03/13 04:30:07;;;;;;;6.30;2.43;;;9.80;99.90;;;;;;5065068;28;20596;-83
2024/03/13 04:32:35;;;;;;;7.97;3.50;;;9.80;99.90;;;;;;5067306;28;20526;-84
2024/03/13 04:35:02;;;;;;;7.50;3.30;;;9.80;99.90;;;;;;5062256;28;20473;-83
2024/03/13 04:37:29;;;;;;;8.57;2.87;;;9.90;99.90;;;;;;5032529;28;20482;-83
2024/03/13 04:39:58;;;;;;;6.50;2.70;;;9.90;99.90;;;;;;5034727;28;20521;-83
2024/03/13 04:42:25;;;;;;;8.03;2.77;;;9.90;99.90;;;;;;5041013;28;20466;-83
2024/03/13 04:44:52;;;;;;;7.40;2.40;;;9.90;99.90;;;;;;5061657;28;20874;-83
2024/03/13 04:47:19;;;;;;;6.77;2.47;;;9.90;99.90;;;;;;5061714;28;20443;-83
2024/03/13 04:49:46;;;;;;;6.07;2.20;;;9.90;99.90;;;;;;5052983;28;20904;-83
2024/03/13 04:52:13;;;;;;;6.00;2.23;;;10.00;99.90;;;;;;5050908;28;20550;-83
2024/03/13 04:54:40;;;;;;;7.10;2.50;;;10.00;99.90;;;;;;5028959;28;20451;-83
2024/03/13 04:57:07;;;;;;;6.03;2.37;;;10.00;99.90;;;;;;5023964;28;20467;-83
2024/03/13 04:59:36;;;;;;;7.67;2.90;;;10.00;99.90;;;;;;5033381;28;20506;-83
2024/03/13 05:02:03;;;;;;;7.20;2.60;;;10.00;99.90;;;;;;5034615;28;20446;-82
2024/03/13 05:04:30;;;;;;;6.97;2.30;;;10.00;99.90;;;;;;5035925;28;20467;-84
2024/03/13 05:07:01;;;;;;;6.60;2.50;;;10.00;99.90;;;;;;5023339;28;20548;-83
2024/03/13 05:09:29;;;;;;;6.17;2.53;;;10.00;99.90;;;;;;5028683;28;20820;-83
2024/03/13 05:11:55;;;;;;;8.60;2.87;;;10.00;99.90;;;;;;5038013;28;20467;-83
2024/03/13 05:14:22;;;;;;;6.07;2.00;;;10.00;99.90;;;;;;5063341;28;20457;-84
2024/03/13 05:16:50;;;;;;;5.97;2.37;;;10.10;99.90;;;;;;5062421;28;20565;-83
2024/03/13 05:19:18;;;;;;;7.07;3.37;;;10.10;99.90;;;;;;5054693;28;20461;-84
2024/03/13 05:21:45;;;;;;;7.43;2.40;;;9.90;99.90;;;;;;5063323;28;20539;-83
2024/03/13 05:24:13;;;;;;;6.30;2.40;;;9.90;99.90;;;;;;5047119;28;20451;-82
2024/03/13 05:26:41;;;;;;;6.17;2.57;;;9.90;99.90;;;;;;5063419;28;20486;-81
2024/03/13 05:29:09;;;;;;;7.00;2.40;;;9.90;99.90;;;;;;5058239;28;20939;-81
2024/03/13 05:31:36;;;;;;;6.23;2.50;;;9.90;99.90;;;;;;5038256;28;20882;-81
2024/03/13 05:34:03;;;;;;;7.70;2.90;;;9.90;99.90;;;;;;5039487;28;20631;-82
2024/03/13 05:36:29;;;;;;;7.67;2.87;;;10.00;99.90;;;;;;5034780;28;21078;-82
2024/03/13 05:38:57;;;;;;;13.33;6.80;;;9.90;99.90;;;;;;5040376;28;20456;-82
2024/03/13 05:41:24;;;;;;;8.60;4.10;;;9.90;99.90;;;;;;5065097;28;20509;-82
2024/03/13 05:43:51;;;;;;;6.77;3.00;;;9.90;99.90;;;;;;5046061;28;20538;-82
2024/03/13 05:46:18;;;;;;;6.53;3.17;;;9.90;99.90;;;;;;5064324;28;20557;-81
2024/03/13 05:48:46;;;;;;;9.27;2.60;;;9.90;99.90;;;;;;5065262;28;20458;-81
2024/03/13 05:51:13;;;;;;;7.97;3.53;;;9.90;99.90;;;;;;5061661;28;20533;-82
2024/03/13 05:53:40;;;;;;;7.40;3.30;;;9.90;99.90;;;;;;5039609;28;20586;-81
2024/03/13 05:56:07;;;;;;;10.60;3.60;;;9.90;99.90;;;;;;5049938;28;20486;-82
2024/03/13 05:58:34;;;;;;;7.87;3.50;;;9.90;99.90;;;;;;5036877;28;20867;-83
2024/03/13 06:01:02;;;;;;;7.43;3.70;;;9.80;99.90;;;;;;5040062;28;20542;-82
2024/03/13 06:03:29;;;;;;;10.77;5.07;;;9.70;99.90;;;;;;5027326;28;20475;-83
2024/03/13 06:05:56;;;;;;;7.07;3.43;;;9.70;99.90;;;;;;5010937;28;20472;-82
2024/03/13 06:08:23;;;;;;;7.20;3.37;;;9.70;99.90;;;;;;5036051;28;20457;-83
2024/03/13 06:10:50;;;;;;;7.40;3.50;;;9.60;99.90;;;;;;5058748;28;20595;-83
2024/03/13 06:13:17;;;;;;;6.93;3.30;;;9.60;99.90;;;;;;5056150;28;20504;-83
2024/03/13 06:15:44;;;;;;;7.00;3.90;;;9.70;99.90;;;;;;5058637;28;20542;-83
2024/03/13 06:18:12;;;;;;;9.93;3.80;;;9.70;99.90;;;;;;5057513;28;20541;-82
2024/03/13 06:20:39;;;;;;;6.90;3.33;;;9.70;99.90;;;;;;5058145;28;20839;-83
2024/03/13 06:23:06;;;;;;;7.17;2.83;;;9.70;99.90;;;;;;5058041;28;20450;-83
2024/03/13 06:25:41;;;;;;;6.77;3.50;;;9.80;99.90;;;;;;5054829;28;20479;-83
2024/03/13 06:30:49;;;;;;;7.37;3.30;;;9.80;99.90;;;;;;5048705;28;20486;-83
2024/03/13 06:33:16;;;;;;;6.47;2.77;;;9.80;99.90;;;;;;5029412;28;20451;-84
2024/03/13 06:35:43;;;;;;;8.10;3.63;;;9.90;99.90;;;;;;5034670;28;21019;-81
2024/03/13 06:38:10;;;;;;;7.60;3.63;;;9.90;99.90;;;;;;5053237;28;20523;-83
2024/03/13 06:40:37;;;;;;;6.50;3.17;;;10.00;99.90;;;;;;5046012;28;20447;-77
2024/03/13 06:43:05;;;;;;;5.93;2.70;;;9.90;99.90;;;;;;5036845;28;20478;-82
2024/03/13 06:45:32;;;;;;;6.50;2.77;;;10.00;99.90;;;;;;5023533;28;20471;-80
2024/03/13 06:47:58;;;;;;;7.67;2.80;;;9.90;99.90;;;;;;5023533;28;20444;-81
2024/03/13 06:50:25;;;;;;;6.23;2.60;;;10.00;99.90;;;;;;5024076;28;20870;-82
2024/03/13 06:52:52;;;;;;;6.60;3.40;;;10.00;99.90;;;;;;5026682;28;20459;-82
2024/03/13 06:55:19;;;;;;;5.73;2.70;;;10.10;99.90;;;;;;5030136;28;20911;-82
2024/03/13 06:57:46;;;;;;;6.73;3.50;;;10.10;99.90;;;;;;5028805;28;20463;-83
2024/03/13 07:00:16;;;;;;;9.53;3.00;;;10.10;99.90;;;;;;5033327;28;20439;-83
2024/03/13 07:02:43;;;;;;;6.73;2.20;;;10.20;99.90;;;;;;5031849;28;20459;-83
2024/03/13 07:05:12;;;;;;;6.17;2.93;;;10.20;99.90;;;;;;5031525;28;20482;-83
2024/03/13 07:07:40;;;;;;;6.30;2.77;;;10.20;99.90;;;;;;5034492;28;20496;-82
2024/03/13 07:10:10;;;;;;;6.40;2.70;;;10.30;99.90;;;;;;5031233;28;21019;-81
2024/03/13 07:12:37;;;;;;;5.70;2.50;;;10.30;99.90;;;;;;5027659;28;20511;-82
2024/03/13 07:15:06;;;;;;;6.60;3.23;;;10.40;99.90;;;;;;5031922;28;20467;-82
2024/03/13 07:17:33;;;;;;;10.03;2.63;;;10.40;99.90;;;;;;5033388;28;20447;-82
2024/03/13 07:20:00;;;;;;;7.50;3.40;;;10.50;99.90;;;;;;5030991;28;20452;-83
2024/03/13 07:22:26;;;;;;;6.20;2.20;;;10.50;99.90;;;;;;5037613;28;20443;-83
2024/03/13 07:24:53;;;;;;;6.97;3.30;;;10.60;99.90;;;;;;5053803;28;20455;-82
2024/03/13 07:27:20;;;;;;;7.17;3.90;;;10.60;99.90;;;;;;5057004;28;20448;-80
2024/03/13 07:29:49;;;;;;;6.73;3.23;;;10.70;99.90;;;;;;5057271;28;20476;-82
2024/03/13 07:32:16;;;;;;;7.97;2.77;;;10.80;99.90;;;;;;5037317;28;20887;-82
2024/03/13 07:34:43;;;;;;;5.90;2.37;;;10.80;99.90;;;;;;5028941;28;20455;-83
2024/03/13 07:37:11;;;;;;;5.00;2.00;;;10.90;99.90;;;;;;5024169;28;20896;-81
2024/03/13 07:39:38;;;;;;;5.30;2.10;;;11.00;99.90;;;;;;5038687;28;20455;-83
2024/03/13 07:42:06;;;;;;;6.73;2.70;;;11.00;99.90;;;;;;5058848;28;20523;-84
2024/03/13 07:44:33;;;;;;;6.20;2.50;;;10.90;99.90;;;;;;5024760;28;20448;-82
2024/03/13 07:47:00;;;;;;;6.20;2.03;;;10.90;99.90;;;;;;5031719;28;20573;-82
2024/03/13 07:49:30;;;;;;;5.93;2.10;;;10.90;99.90;;;;;;5028147;28;20544;-82
2024/03/13 07:52:01;;;;;;;4.53;1.83;;;10.80;99.90;;;;;;5026794;28;20524;-82
2024/03/13 07:54:28;;;;;;;5.73;1.93;;;10.80;99.90;;;;;;5026091;28;20474;-83
2024/03/13 07:56:55;;;;;;;5.37;2.17;;;10.80;99.90;;;;;;5060312;28;20596;-83
2024/03/13 07:59:25;;;;;;;6.50;2.10;;;10.70;99.90;;;;;;5060820;28;20522;-83
2024/03/13 08:01:52;;;;;;;5.73;2.20;;;10.80;99.90;;;;;;5052073;28;21018;-83
2024/03/13 08:04:19;;;;;;;6.30;2.47;;;10.90;99.90;;;;;;5048793;28;20458;-82
2024/03/13 08:06:46;;;;;;;7.70;2.27;;;10.80;99.90;;;;;;5040067;28;20475;-83
2024/03/13 08:09:13;;;;;;;5.53;2.00;;;10.90;99.90;;;;;;5043572;28;20458;-83
2024/03/13 08:11:40;;;;;;;6.80;2.30;;;11.00;99.90;;;;;;5039309;28;20485;-83
2024/03/13 08:14:07;;;;;;;8.20;2.23;;;10.90;99.90;;;;;;5058874;28;20471;-83
2024/03/13 08:16:34;;;;;;;6.10;2.20;;;11.00;99.90;;;;;;5054943;28;20477;-84
2024/03/13 08:19:01;;;;;;;6.13;2.30;;;11.10;99.90;;;;;;5041760;28;20912;-83
2024/03/13 08:21:29;;;;;;;5.93;2.53;;;11.10;99.90;;;;;;5059286;28;20537;-82
2024/03/13 08:23:56;;;;;;;5.90;2.43;;;11.00;99.90;;;;;;5059306;28;20455;-81
2024/03/13 08:26:23;;;;;;;6.13;2.60;;;11.10;99.90;;;;;;5055917;28;20559;-82
2024/03/13 08:28:50;;;;;;;6.83;2.90;;;11.20;99.90;;;;;;5059013;28;20443;-81
2024/03/13 08:31:18;;;;;;;6.57;2.40;;;11.20;99.90;;;;;;5058559;28;20501;-81
2024/03/13 08:33:45;;;;;;;5.70;2.40;;;11.30;99.90;;;;;;5059023;28;20488;-83
2024/03/13 08:36:12;;;;;;;6.57;2.27;;;11.30;99.90;;;;;;5058047;28;20478;-82
2024/03/13 08:38:39;;;;;;;6.27;2.87;;;11.40;99.90;;;;;;5053346;28;20843;-82
2024/03/13 08:41:06;;;;;;;7.40;2.70;;;11.40;99.90;;;;;;5041115;28;20544;-82
2024/03/13 08:43:33;;;;;;;5.60;2.63;;;11.40;99.90;;;;;;5060412;28;20439;-83
2024/03/13 08:46:00;;;;;;;6.20;2.40;;;11.40;99.90;;;;;;5058625;28;20473;-82
2024/03/13 08:48:27;;;;;;;6.60;2.87;;;11.40;99.90;;;;;;5058152;28;20447;-81
2024/03/13 08:50:57;;;;;;;5.87;2.80;;;11.50;99.90;;;;;;5049099;28;20455;-82
2024/03/13 08:53:24;;;;;;;6.10;2.50;;;11.50;99.90;;;;;;5058167;28;20455;-81
2024/03/13 08:55:51;;;;;;;7.10;2.90;;;11.50;99.90;;;;;;5049076;28;20477;-80
2024/03/13 08:58:18;;;;;;;6.83;2.60;;;11.50;99.90;;;;;;5050016;28;20535;-82
2024/03/13 09:00:45;;;;;;;6.20;3.20;;;11.50;99.90;;;;;;5052617;28;21046;-82
2024/03/13 09:03:12;;;;;;;6.67;3.40;;;11.50;99.90;;;;;;5057840;28;20443;-83
2024/03/13 09:05:41;;;;;;;6.70;3.40;;;11.50;99.90;;;;;;5037984;28;20503;-82
2024/03/13 09:08:10;;;;;;;8.00;3.30;;;11.40;99.90;;;;;;5048894;28;20945;-81
2024/03/13 09:10:37;;;;;;;7.93;2.90;;;11.40;99.90;;;;;;5039771;28;20467;-83
2024/03/13 09:13:04;;;;;;;6.93;3.20;;;11.40;99.90;;;;;;5029124;28;20580;-83
2024/03/13 09:15:31;;;;;;;6.50;3.40;;;11.50;99.90;;;;;;5056481;28;20565;-81
2024/03/13 09:17:58;;;;;;;6.60;3.17;;;11.50;99.90;;;;;;5034467;28;20458;-84
2024/03/13 09:20:26;;;;;;;6.17;3.20;;;11.50;99.90;;;;;;5056002;28;20532;-83
2024/03/13 09:22:54;;;;;;;6.77;2.97;;;11.50;99.90;;;;;;5039642;28;20451;-84
2024/03/13 09:25:21;;;;;;;6.70;3.20;;;11.50;99.90;;;;;;5058095;28;20475;-84
2024/03/13 09:27:48;;;;;;;7.50;4.03;;;11.50;99.90;;;;;;5056350;28;20448;-83
2024/03/13 09:30:15;;;;;;;6.30;2.80;;;11.70;99.90;;;;;;5036113;28;21009;-84
2024/03/13 09:32:42;;;;;;;7.27;3.20;;;11.80;99.90;;;;;;5022236;28;20512;-83
2024/03/13 09:35:13;;;;;;;5.67;2.83;;;11.80;99.90;;;;;;5036334;28;21028;-83
2024/03/13 09:37:41;;;;;;;6.47;3.30;;;11.80;99.90;;;;;;5036321;28;20461;-82
2024/03/13 09:40:10;;;;;;;7.63;3.20;;;11.80;99.90;;;;;;5024156;28;20457;-81
2024/03/13 09:42:37;;;;;;;6.80;3.20;;;11.80;99.90;;;;;;5032970;28;20506;-82
2024/03/13 09:45:07;;;;;;;5.10;2.23;;;12.00;99.90;;;;;;5039133;28;20472;-82
2024/03/13 09:47:34;;;;;;;5.80;2.50;;;12.00;99.90;;;;;;5035156;28;20454;-84
2024/03/13 09:50:05;;;;;;;5.10;2.37;;;12.10;99.90;;;;;;5041017;28;20482;-81
2024/03/13 09:52:32;;;;;;;6.10;2.80;;;12.10;99.90;;;;;;5043467;28;20483;-82
2024/03/13 09:54:59;;;;;;;5.83;2.70;;;12.10;99.90;;;;;;5054357;28;20533;-83
2024/03/13 09:57:27;;;;;;;6.37;2.70;;;12.00;99.90;;;;;;5039643;28;20554;-83
2024/03/13 09:59:56;;;;;;;8.80;3.20;;;12.00;99.90;;;;;;5038789;28;20451;-83
2024/03/13 10:02:23;;;;;;;7.10;3.30;;;12.00;99.90;;;;;;5039490;28;20453;-80
2024/03/13 10:04:50;;;;;;;8.73;2.97;;;12.10;99.90;;;;;;5035573;28;20454;-82
2024/03/13 10:07:18;;;;;;;7.70;3.70;;;12.00;99.90;;;;;;5057820;28;20534;-82
2024/03/13 10:09:46;;;;;;;7.57;3.83;;;12.10;99.90;;;;;;5055955;28;20446;-82
2024/03/13 10:12:12;;;;;;;8.73;4.77;;;12.10;99.90;;;;;;5023707;28;20497;-82
2024/03/13 10:14:39;;;;;;;9.97;4.33;;;12.20;99.90;;;;;;5050893;28;20455;-82
2024/03/13 10:17:07;;;;;;;9.20;4.37;;;12.10;99.90;;;;;;5050652;28;20462;-82
2024/03/13 10:19:34;;;;;;;10.80;5.53;;;12.10;99.90;;;;;;5025352;28;20518;-81
2024/03/13 10:22:01;;;;;;;9.43;4.60;;;12.10;99.90;;;;;;5011068;28;20529;-83
2024/03/13 10:24:29;;;;;;;11.03;5.53;;;12.20;99.90;;;;;;5025855;28;20450;-82
2024/03/13 10:26:56;;;;;;;8.63;4.77;;;12.20;99.90;;;;;;5032013;28;20473;-81
2024/03/13 10:29:23;;;;;;;10.73;5.33;;;12.30;99.90;;;;;;5018544;28;20565;-82
2024/03/13 10:31:50;;;;;;;11.23;5.43;;;12.30;99.90;;;;;;5054144;28;20506;-81
2024/03/13 10:34:18;;;;;;;9.73;5.07;;;12.40;99.90;;;;;;5040098;28;20901;-82
2024/03/13 10:36:45;;;;;;;11.20;5.83;;;12.50;99.90;;;;;;5024649;28;20508;-83
2024/03/13 10:39:12;;;;;;;9.80;5.83;;;12.50;99.90;;;;;;5020762;28;20489;-82
2024/03/13 10:41:44;;;;;;;12.20;7.23;;;12.50;99.90;;;;;;5020288;28;20967;-82
2024/03/13 10:44:11;;;;;;;11.60;6.33;;;12.40;99.90;;;;;;5022497;28;20507;-82
2024/03/13 10:46:38;;;;;;;17.87;7.80;;;12.50;99.90;;;;;;5015221;28;20556;-81
2024/03/13 10:49:06;;;;;;;12.63;8.17;;;12.50;99.90;;;;;;5046916;28;20532;-81
2024/03/13 10:51:33;;;;;;;13.23;7.50;;;12.50;99.90;;;;;;5049541;28;20460;-83
2024/03/13 10:54:03;;;;;;;17.20;9.00;;;12.20;99.90;;;;;;5037581;28;20453;-82
2024/03/13 10:56:30;;;;;;;16.70;9.77;;;12.20;99.90;;;;;;5055009;28;20475;-81
2024/03/13 10:58:57;;;;;;;14.90;8.03;;;12.30;99.90;;;;;;5055799;28;20457;-83
2024/03/13 11:01:24;;;;;;;19.03;11.60;;;12.30;99.90;;;;;;5054616;28;20456;-83
2024/03/13 11:03:57;;;;;;;20.70;10.40;;;12.30;99.90;;;;;;5034334;28;20445;-82
2024/03/13 11:06:39;;;;;;;25.20;13.90;;;12.50;99.90;;;;;;5025125;28;21037;-81
2024/03/13 11:09:10;;;;;;;19.53;11.83;;;12.50;99.90;;;;;;5025007;28;20510;-83
2024/03/13 11:11:40;;;;;;;17.20;10.80;;;12.50;99.90;;;;;;5036370;28;20458;-81
2024/03/13 11:14:10;;;;;;;18.00;10.77;;;12.40;99.90;;;;;;5037528;28;20518;-81
2024/03/13 11:16:38;;;;;;;17.20;10.80;;;12.30;99.90;;;;;;5032362;28;20480;-81
2024/03/13 11:27:20;;;;;;;26.37;16.10;;;12.30;99.90;;;;;;5087059;22;20498;-82
2024/03/13 11:29:49;;;;;;;29.03;18.87;;;12.40;99.90;;;;;;5015476;28;20457;-83
2024/03/13 11:32:19;;;;;;;28.57;15.80;;;12.30;99.90;;;;;;5011226;28;20488;-82
2024/03/13 11:34:59;;;;;;;26.03;17.07;;;12.50;99.90;;;;;;5018605;28;20550;-82
2024/03/13 11:37:32;;;;;;;26.93;15.80;;;12.50;99.90;;;;;;5013773;28;20487;-82
2024/03/13 11:40:03;;;;;;;24.10;15.27;;;12.50;99.90;;;;;;5014458;28;20495;-82
2024/03/13 11:42:31;;;;;;;27.60;16.20;;;12.60;99.90;;;;;;5013347;28;20956;-81
2024/03/13 11:45:15;;;;;;;29.23;17.27;;;12.50;99.90;;;;;;5011292;28;20899;-82
2024/03/13 11:47:42;;;;;;;23.80;14.47;;;12.70;99.90;;;;;;5009191;28;20464;-82
2024/03/13 11:50:10;;;;;;;20.80;11.67;;;12.80;99.90;;;;;;5012589;28;20455;-83
2024/03/13 11:52:38;;;;;;;18.30;10.97;;;12.80;99.90;;;;;;5007104;28;20536;-84
2024/03/13 11:55:05;;;;;;;16.97;10.00;;;12.80;99.90;;;;;;5011363;28;20472;-82
2024/03/13 11:57:34;;;;;;;17.97;10.37;;;12.70;99.90;;;;;;5012615;28;20449;-83
2024/03/13 12:00:01;;;;;;;21.47;10.83;;;12.80;99.90;;;;;;5013423;28;20444;-82
2024/03/13 12:02:38;;;;;;;16.77;10.00;;;12.70;99.90;;;;;;5012833;28;20551;-82
2024/03/13 12:05:07;;;;;;;17.33;8.53;;;12.70;99.90;;;;;;5018008;28;20472;-84
2024/03/13 12:07:40;;;;;;;15.30;9.00;;;12.70;99.90;;;;;;5023884;28;20446;-81
2024/03/13 12:10:09;;;;;;;15.00;9.20;;;12.80;99.90;;;;;;5036438;28;20487;-81
2024/03/13 12:12:36;;;;;;;16.37;9.70;;;12.70;99.90;;;;;;5034102;28;20530;-83
2024/03/13 12:15:03;;;;;;;15.27;9.57;;;12.80;99.90;;;;;;5019917;28;20484;-84
2024/03/13 12:17:30;;;;;;;16.73;9.00;;;12.90;99.90;;;;;;5021216;28;20536;-84
2024/03/13 12:19:57;;;;;;;16.10;9.37;;;12.80;99.90;;;;;;5018460;28;20518;-82
2024/03/13 12:22:24;;;;;;;17.20;8.60;;;12.80;99.90;;;;;;5026875;28;20474;-82
2024/03/13 12:24:51;;;;;;;14.47;9.17;;;12.80;99.90;;;;;;5022753;28;20460;-83
2024/03/13 12:27:18;;;;;;;20.10;9.20;;;12.90;99.90;;;;;;5023694;28;20545;-83
2024/03/13 12:29:45;;;;;;;15.60;10.00;;;12.90;99.90;;;;;;5018324;28;20830;-83
2024/03/13 12:32:13;;;;;;;15.10;8.80;;;12.80;99.90;;;;;;5018965;28;20460;-82
2024/03/13 12:34:43;;;;;;;14.10;8.90;;;12.70;99.90;;;;;;5019861;28;20476;-82
2024/03/13 12:37:15;;;;;;;20.83;9.03;;;12.70;99.90;;;;;;5027470;28;20459;-83
2024/03/13 12:39:42;;;;;;;16.37;10.03;;;12.70;99.90;;;;;;5023588;28;20532;-82
2024/03/13 12:42:09;;;;;;;15.20;9.30;;;12.70;99.90;;;;;;5016632;28;20558;-82
2024/03/13 12:44:36;;;;;;;13.50;8.10;;;12.80;99.90;;;;;;5026634;28;20449;-81
2024/03/13 12:47:12;;;;;;;12.80;7.67;;;12.80;99.90;;;;;;5028057;28;20480;-82
2024/03/13 12:49:42;;;;;;;13.77;7.83;;;12.90;99.90;;;;;;5025391;28;20472;-80
2024/03/13 12:52:10;;;;;;;12.53;7.30;;;12.90;99.90;;;;;;5020982;28;20458;-80
2024/03/13 12:54:37;;;;;;;12.93;7.17;;;12.90;99.90;;;;;;5025259;28;20511;-79
2024/03/13 12:57:06;;;;;;;13.80;6.70;;;12.80;99.90;;;;;;5022733;28;21109;-80
2024/03/13 12:59:33;;;;;;;13.40;7.70;;;12.90;99.90;;;;;;5019289;28;20488;-80
2024/03/13 13:02:02;;;;;;;16.40;9.63;;;13.00;99.90;;;;;;5023766;28;20448;-81
2024/03/13 13:04:28;;;;;;;15.70;9.90;;;13.10;99.90;;;;;;5029275;28;20456;-80
2024/03/13 13:06:55;;;;;;;14.00;8.20;;;13.30;99.90;;;;;;5027478;28;20475;-81
2024/03/13 13:09:23;;;;;;;17.07;9.43;;;13.40;99.90;;;;;;5025606;28;20449;-81
2024/03/13 13:11:50;;;;;;;12.67;6.93;;;13.50;99.90;;;;;;5025206;28;20461;-81
2024/03/13 13:14:16;;;;;;;11.97;6.57;;;13.50;99.90;;;;;;5025538;28;20490;-81
2024/03/13 13:16:44;;;;;;;12.27;7.40;;;13.40;99.90;;;;;;5028245;28;21047;-80